sensor_id;sensor_type;location;lat;lon;timestamp;P1;durP1;ratioP1;P2;durP2;ratioP2
36651;SDS011;53334;51.976;20.144;2023-04-03T00:00:13;4.25;;;1.75;;
36651;SDS011;53334;51.976;20.144;2023-04-03T00:02:47;1.98;;;1.17;;
36651;SDS011;53334;51.976;20.144;2023-04-03T00:05:22;2.60;;;1.30;;
36651;SDS011;53334;51.976;20.144;2023-04-03T00:07:56;2.55;;;1.55;;
36651;SDS011;53334;51.976;20.144;2023-04-03T00:10:29;2.58;;;1.25;;
36651;SDS011;53334;51.976;20.144;2023-04-03T00:13:03;3.40;;;1.23;;
36651;SDS011;53334;51.976;20.144;2023-04-03T00:15:37;2.05;;;1.17;;
36651;SDS011;53334;51.976;20.144;2023-04-03T00:18:11;3.67;;;1.25;;
36651;SDS011;53334;51.976;20.144;2023-04-03T00:20:46;3.88;;;1.58;;
36651;SDS011;53334;51.976;20.144;2023-04-03T00:23:20;6.80;;;1.25;;
36651;SDS011;53334;51.976;20.144;2023-04-03T00:25:55;2.15;;;1.40;;
36651;SDS011;53334;51.976;20.144;2023-04-03T00:28:28;2.90;;;1.15;;
36651;SDS011;53334;51.976;20.144;2023-04-03T00:31:02;3.75;;;1.38;;
36651;SDS011;53334;51.976;20.144;2023-04-03T00:33:35;2.47;;;1.10;;
36651;SDS011;53334;51.976;20.144;2023-04-03T00:36:10;4.13;;;1.30;;
36651;SDS011;53334;51.976;20.144;2023-04-03T00:38:45;1.85;;;1.33;;
36651;SDS011;53334;51.976;20.144;2023-04-03T00:41:18;2.60;;;1.25;;
36651;SDS011;53334;51.976;20.144;2023-04-03T00:43:52;3.33;;;1.30;;
36651;SDS011;53334;51.976;20.144;2023-04-03T00:46:26;4.90;;;2.10;;
36651;SDS011;53334;51.976;20.144;2023-04-03T00:48:59;3.47;;;1.55;;
36651;SDS011;53334;51.976;20.144;2023-04-03T00:51:34;3.10;;;1.30;;
36651;SDS011;53334;51.976;20.144;2023-04-03T00:54:08;2.35;;;1.23;;
36651;SDS011;53334;51.976;20.144;2023-04-03T00:56:42;2.33;;;1.63;;
36651;SDS011;53334;51.976;20.144;2023-04-03T00:59:18;2.65;;;1.20;;
36651;SDS011;53334;51.976;20.144;2023-04-03T01:01:57;1.92;;;1.00;;
36651;SDS011;53334;51.976;20.144;2023-04-03T01:04:33;1.83;;;0.80;;
36651;SDS011;53334;51.976;20.144;2023-04-03T01:07:10;2.78;;;1.30;;
36651;SDS011;53334;51.976;20.144;2023-04-03T01:09:48;3.35;;;1.20;;
36651;SDS011;53334;51.976;20.144;2023-04-03T01:12:27;6.28;;;1.70;;
36651;SDS011;53334;51.976;20.144;2023-04-03T01:15:04;1.38;;;0.82;;
36651;SDS011;53334;51.976;20.144;2023-04-03T01:17:40;3.03;;;1.52;;
36651;SDS011;53334;51.976;20.144;2023-04-03T01:23:38;5.50;;;1.75;;
36651;SDS011;53334;51.976;20.144;2023-04-03T01:26:20;4.50;;;1.40;;
36651;SDS011;53334;51.976;20.144;2023-04-03T01:28:54;3.38;;;1.60;;
36651;SDS011;53334;51.976;20.144;2023-04-03T01:31:29;2.42;;;1.33;;
36651;SDS011;53334;51.976;20.144;2023-04-03T01:34:07;5.78;;;1.50;;
36651;SDS011;53334;51.976;20.144;2023-04-03T01:36:41;3.05;;;1.27;;
36651;SDS011;53334;51.976;20.144;2023-04-03T01:39:14;2.85;;;1.63;;
36651;SDS011;53334;51.976;20.144;2023-04-03T01:41:48;5.22;;;1.25;;
36651;SDS011;53334;51.976;20.144;2023-04-03T01:44:28;2.10;;;1.60;;
36651;SDS011;53334;51.976;20.144;2023-04-03T01:47:02;3.30;;;1.58;;
36651;SDS011;53334;51.976;20.144;2023-04-03T01:49:40;2.92;;;1.23;;
36651;SDS011;53334;51.976;20.144;2023-04-03T01:52:14;4.78;;;1.90;;
36651;SDS011;53334;51.976;20.144;2023-04-03T01:54:47;2.45;;;1.38;;
36651;SDS011;53334;51.976;20.144;2023-04-03T01:57:22;4.32;;;1.13;;
36651;SDS011;53334;51.976;20.144;2023-04-03T01:59:55;2.65;;;1.27;;
36651;SDS011;53334;51.976;20.144;2023-04-03T02:02:29;3.33;;;1.42;;
36651;SDS011;53334;51.976;20.144;2023-04-03T02:05:04;4.45;;;1.70;;
36651;SDS011;53334;51.976;20.144;2023-04-03T02:07:38;4.53;;;1.55;;
36651;SDS011;53334;51.976;20.144;2023-04-03T02:10:12;4.68;;;2.30;;
36651;SDS011;53334;51.976;20.144;2023-04-03T02:12:46;2.95;;;1.33;;
36651;SDS011;53334;51.976;20.144;2023-04-03T02:15:19;3.28;;;1.13;;
36651;SDS011;53334;51.976;20.144;2023-04-03T02:17:53;3.17;;;1.23;;
36651;SDS011;53334;51.976;20.144;2023-04-03T02:20:28;5.57;;;1.80;;
36651;SDS011;53334;51.976;20.144;2023-04-03T02:23:02;2.63;;;1.30;;
36651;SDS011;53334;51.976;20.144;2023-04-03T02:25:36;2.38;;;1.30;;
36651;SDS011;53334;51.976;20.144;2023-04-03T02:28:09;2.45;;;1.42;;
36651;SDS011;53334;51.976;20.144;2023-04-03T02:30:43;4.85;;;1.60;;
36651;SDS011;53334;51.976;20.144;2023-04-03T02:33:17;3.80;;;1.67;;
36651;SDS011;53334;51.976;20.144;2023-04-03T02:35:53;4.63;;;1.58;;
36651;SDS011;53334;51.976;20.144;2023-04-03T02:38:27;4.20;;;1.60;;
36651;SDS011;53334;51.976;20.144;2023-04-03T02:41:01;4.40;;;1.45;;
36651;SDS011;53334;51.976;20.144;2023-04-03T02:43:36;3.60;;;1.58;;
36651;SDS011;53334;51.976;20.144;2023-04-03T02:46:10;6.53;;;1.50;;
36651;SDS011;53334;51.976;20.144;2023-04-03T02:48:47;2.63;;;1.20;;
36651;SDS011;53334;51.976;20.144;2023-04-03T02:51:21;3.45;;;1.60;;
36651;SDS011;53334;51.976;20.144;2023-04-03T02:53:57;3.15;;;1.33;;
36651;SDS011;53334;51.976;20.144;2023-04-03T02:56:35;3.05;;;1.67;;
36651;SDS011;53334;51.976;20.144;2023-04-03T02:59:08;3.20;;;1.30;;
36651;SDS011;53334;51.976;20.144;2023-04-03T03:01:43;1.35;;;1.15;;
36651;SDS011;53334;51.976;20.144;2023-04-03T03:04:17;5.78;;;1.92;;
36651;SDS011;53334;51.976;20.144;2023-04-03T03:06:52;4.97;;;1.60;;
36651;SDS011;53334;51.976;20.144;2023-04-03T03:09:26;2.88;;;1.58;;
36651;SDS011;53334;51.976;20.144;2023-04-03T03:12:00;1.65;;;1.17;;
36651;SDS011;53334;51.976;20.144;2023-04-03T03:14:34;7.30;;;1.92;;
36651;SDS011;53334;51.976;20.144;2023-04-03T03:17:07;6.95;;;1.88;;
36651;SDS011;53334;51.976;20.144;2023-04-03T03:19:41;5.47;;;1.75;;
36651;SDS011;53334;51.976;20.144;2023-04-03T03:22:15;5.75;;;2.08;;
36651;SDS011;53334;51.976;20.144;2023-04-03T03:24:49;5.03;;;1.50;;
36651;SDS011;53334;51.976;20.144;2023-04-03T03:27:22;3.53;;;2.00;;
36651;SDS011;53334;51.976;20.144;2023-04-03T03:32:29;3.72;;;1.75;;
36651;SDS011;53334;51.976;20.144;2023-04-03T03:35:03;3.22;;;1.73;;
36651;SDS011;53334;51.976;20.144;2023-04-03T03:37:38;4.53;;;1.92;;
36651;SDS011;53334;51.976;20.144;2023-04-03T03:40:12;6.38;;;2.53;;
36651;SDS011;53334;51.976;20.144;2023-04-03T03:42:48;7.25;;;1.70;;
36651;SDS011;53334;51.976;20.144;2023-04-03T03:45:22;2.67;;;1.50;;
36651;SDS011;53334;51.976;20.144;2023-04-03T03:50:29;7.07;;;1.48;;
36651;SDS011;53334;51.976;20.144;2023-04-03T03:53:04;7.95;;;2.13;;
36651;SDS011;53334;51.976;20.144;2023-04-03T03:55:38;5.22;;;1.70;;
36651;SDS011;53334;51.976;20.144;2023-04-03T03:58:11;4.88;;;1.40;;
36651;SDS011;53334;51.976;20.144;2023-04-03T04:00:45;4.20;;;1.90;;
36651;SDS011;53334;51.976;20.144;2023-04-03T04:03:18;4.68;;;1.60;;
36651;SDS011;53334;51.976;20.144;2023-04-03T04:05:53;5.70;;;1.30;;
36651;SDS011;53334;51.976;20.144;2023-04-03T04:08:29;4.85;;;1.65;;
36651;SDS011;53334;51.976;20.144;2023-04-03T04:11:02;3.25;;;1.30;;
36651;SDS011;53334;51.976;20.144;2023-04-03T04:13:36;2.90;;;1.10;;
36651;SDS011;53334;51.976;20.144;2023-04-03T04:16:10;3.33;;;1.50;;
36651;SDS011;53334;51.976;20.144;2023-04-03T04:18:44;5.15;;;1.55;;
36651;SDS011;53334;51.976;20.144;2023-04-03T04:21:17;4.90;;;1.48;;
36651;SDS011;53334;51.976;20.144;2023-04-03T04:26:27;2.95;;;1.10;;
36651;SDS011;53334;51.976;20.144;2023-04-03T04:29:00;6.45;;;2.38;;
36651;SDS011;53334;51.976;20.144;2023-04-03T04:31:37;8.20;;;2.17;;
36651;SDS011;53334;51.976;20.144;2023-04-03T04:36:44;3.37;;;1.40;;
36651;SDS011;53334;51.976;20.144;2023-04-03T04:39:19;3.88;;;1.23;;
36651;SDS011;53334;51.976;20.144;2023-04-03T04:41:53;9.48;;;1.45;;
36651;SDS011;53334;51.976;20.144;2023-04-03T04:44:27;3.85;;;1.60;;
36651;SDS011;53334;51.976;20.144;2023-04-03T04:47:26;2.17;;;1.38;;
36651;SDS011;53334;51.976;20.144;2023-04-03T04:50:01;5.70;;;1.77;;
36651;SDS011;53334;51.976;20.144;2023-04-03T04:52:36;3.22;;;1.52;;
36651;SDS011;53334;51.976;20.144;2023-04-03T04:55:13;2.20;;;1.33;;
36651;SDS011;53334;51.976;20.144;2023-04-03T04:57:47;5.22;;;1.35;;
36651;SDS011;53334;51.976;20.144;2023-04-03T05:02:54;2.25;;;1.45;;
36651;SDS011;53334;51.976;20.144;2023-04-03T05:05:28;5.63;;;1.50;;
36651;SDS011;53334;51.976;20.144;2023-04-03T05:08:01;4.40;;;2.00;;
36651;SDS011;53334;51.976;20.144;2023-04-03T05:10:36;11.25;;;2.45;;
36651;SDS011;53334;51.976;20.144;2023-04-03T05:13:12;3.75;;;1.80;;
36651;SDS011;53334;51.976;20.144;2023-04-03T05:15:46;3.22;;;1.85;;
36651;SDS011;53334;51.976;20.144;2023-04-03T05:18:20;5.75;;;1.98;;
36651;SDS011;53334;51.976;20.144;2023-04-03T05:20:55;2.55;;;1.50;;
36651;SDS011;53334;51.976;20.144;2023-04-03T05:23:30;1.73;;;1.10;;
36651;SDS011;53334;51.976;20.144;2023-04-03T05:26:08;5.07;;;1.40;;
36651;SDS011;53334;51.976;20.144;2023-04-03T05:28:42;6.85;;;1.88;;
36651;SDS011;53334;51.976;20.144;2023-04-03T05:31:17;7.18;;;2.25;;
36651;SDS011;53334;51.976;20.144;2023-04-03T05:33:51;7.75;;;2.08;;
36651;SDS011;53334;51.976;20.144;2023-04-03T05:36:25;4.32;;;1.48;;
36651;SDS011;53334;51.976;20.144;2023-04-03T05:39:03;5.65;;;1.90;;
36651;SDS011;53334;51.976;20.144;2023-04-03T05:41:42;5.28;;;2.20;;
36651;SDS011;53334;51.976;20.144;2023-04-03T05:44:16;7.07;;;2.20;;
36651;SDS011;53334;51.976;20.144;2023-04-03T05:46:51;6.00;;;2.10;;
36651;SDS011;53334;51.976;20.144;2023-04-03T05:49:25;7.30;;;2.67;;
36651;SDS011;53334;51.976;20.144;2023-04-03T05:51:58;3.80;;;2.40;;
36651;SDS011;53334;51.976;20.144;2023-04-03T05:54:34;6.07;;;2.50;;
36651;SDS011;53334;51.976;20.144;2023-04-03T05:57:19;4.68;;;2.45;;
36651;SDS011;53334;51.976;20.144;2023-04-03T05:59:53;6.50;;;2.30;;
36651;SDS011;53334;51.976;20.144;2023-04-03T06:02:27;5.18;;;2.00;;
36651;SDS011;53334;51.976;20.144;2023-04-03T06:05:01;7.35;;;2.53;;
36651;SDS011;53334;51.976;20.144;2023-04-03T06:07:35;7.03;;;2.17;;
36651;SDS011;53334;51.976;20.144;2023-04-03T06:10:10;9.43;;;2.58;;
36651;SDS011;53334;51.976;20.144;2023-04-03T06:12:45;4.82;;;2.05;;
36651;SDS011;53334;51.976;20.144;2023-04-03T06:15:44;4.65;;;2.00;;
36651;SDS011;53334;51.976;20.144;2023-04-03T06:18:18;6.43;;;2.00;;
36651;SDS011;53334;51.976;20.144;2023-04-03T06:20:52;4.97;;;2.28;;
36651;SDS011;53334;51.976;20.144;2023-04-03T06:23:25;3.47;;;1.77;;
36651;SDS011;53334;51.976;20.144;2023-04-03T06:25:59;5.18;;;2.13;;
36651;SDS011;53334;51.976;20.144;2023-04-03T06:28:34;4.85;;;1.60;;
36651;SDS011;53334;51.976;20.144;2023-04-03T06:31:07;3.90;;;1.88;;
36651;SDS011;53334;51.976;20.144;2023-04-03T06:36:15;4.25;;;2.15;;
36651;SDS011;53334;51.976;20.144;2023-04-03T06:38:52;6.55;;;1.77;;
36651;SDS011;53334;51.976;20.144;2023-04-03T06:41:26;7.30;;;1.85;;
36651;SDS011;53334;51.976;20.144;2023-04-03T06:44:01;4.88;;;1.63;;
36651;SDS011;53334;51.976;20.144;2023-04-03T06:46:34;11.77;;;1.95;;
36651;SDS011;53334;51.976;20.144;2023-04-03T06:49:08;9.60;;;1.90;;
36651;SDS011;53334;51.976;20.144;2023-04-03T06:54:15;4.53;;;1.88;;
36651;SDS011;53334;51.976;20.144;2023-04-03T06:56:48;7.07;;;2.08;;
36651;SDS011;53334;51.976;20.144;2023-04-03T06:59:24;7.95;;;2.10;;
36651;SDS011;53334;51.976;20.144;2023-04-03T07:01:57;4.60;;;1.80;;
36651;SDS011;53334;51.976;20.144;2023-04-03T07:07:04;6.00;;;2.42;;
36651;SDS011;53334;51.976;20.144;2023-04-03T07:09:39;6.97;;;2.05;;
36651;SDS011;53334;51.976;20.144;2023-04-03T07:12:15;5.97;;;1.60;;
36651;SDS011;53334;51.976;20.144;2023-04-03T07:14:50;6.80;;;1.70;;
36651;SDS011;53334;51.976;20.144;2023-04-03T07:17:24;10.13;;;2.35;;
36651;SDS011;53334;51.976;20.144;2023-04-03T07:19:58;2.67;;;1.60;;
36651;SDS011;53334;51.976;20.144;2023-04-03T07:22:35;15.15;;;2.42;;
36651;SDS011;53334;51.976;20.144;2023-04-03T07:25:08;5.80;;;2.28;;
36651;SDS011;53334;51.976;20.144;2023-04-03T07:27:42;4.75;;;2.22;;
36651;SDS011;53334;51.976;20.144;2023-04-03T07:30:17;9.65;;;1.92;;
36651;SDS011;53334;51.976;20.144;2023-04-03T07:32:50;8.23;;;1.90;;
36651;SDS011;53334;51.976;20.144;2023-04-03T07:35:24;2.40;;;1.30;;
36651;SDS011;53334;51.976;20.144;2023-04-03T07:40:32;5.78;;;2.58;;
36651;SDS011;53334;51.976;20.144;2023-04-03T07:45:40;5.82;;;1.75;;
36651;SDS011;53334;51.976;20.144;2023-04-03T07:48:15;4.50;;;1.77;;
36651;SDS011;53334;51.976;20.144;2023-04-03T07:50:49;4.32;;;1.48;;
36651;SDS011;53334;51.976;20.144;2023-04-03T07:53:23;7.03;;;1.90;;
36651;SDS011;53334;51.976;20.144;2023-04-03T07:55:57;7.50;;;1.30;;
36651;SDS011;53334;51.976;20.144;2023-04-03T07:58:31;5.68;;;1.85;;
36651;SDS011;53334;51.976;20.144;2023-04-03T08:01:06;2.90;;;1.30;;
36651;SDS011;53334;51.976;20.144;2023-04-03T08:03:40;6.88;;;2.08;;
36651;SDS011;53334;51.976;20.144;2023-04-03T08:06:13;4.97;;;1.55;;
36651;SDS011;53334;51.976;20.144;2023-04-03T08:08:56;5.82;;;1.70;;
36651;SDS011;53334;51.976;20.144;2023-04-03T08:11:30;2.80;;;1.63;;
36651;SDS011;53334;51.976;20.144;2023-04-03T08:14:05;3.42;;;1.33;;
36651;SDS011;53334;51.976;20.144;2023-04-03T08:16:40;4.25;;;1.80;;
36651;SDS011;53334;51.976;20.144;2023-04-03T08:19:15;5.72;;;1.63;;
36651;SDS011;53334;51.976;20.144;2023-04-03T08:21:57;8.70;;;2.50;;
36651;SDS011;53334;51.976;20.144;2023-04-03T08:24:32;4.75;;;1.80;;
36651;SDS011;53334;51.976;20.144;2023-04-03T08:27:30;13.35;;;2.00;;
36651;SDS011;53334;51.976;20.144;2023-04-03T08:30:07;8.55;;;1.70;;
36651;SDS011;53334;51.976;20.144;2023-04-03T08:32:42;6.22;;;1.88;;
36651;SDS011;53334;51.976;20.144;2023-04-03T08:35:16;13.65;;;3.05;;
36651;SDS011;53334;51.976;20.144;2023-04-03T08:37:51;4.72;;;1.65;;
36651;SDS011;53334;51.976;20.144;2023-04-03T08:40:24;5.18;;;1.42;;
36651;SDS011;53334;51.976;20.144;2023-04-03T08:45:38;6.40;;;1.48;;
36651;SDS011;53334;51.976;20.144;2023-04-03T08:48:19;13.63;;;1.50;;
36651;SDS011;53334;51.976;20.144;2023-04-03T08:50:55;9.40;;;1.55;;
36651;SDS011;53334;51.976;20.144;2023-04-03T08:53:35;8.55;;;1.55;;
36651;SDS011;53334;51.976;20.144;2023-04-03T08:56:12;3.33;;;1.38;;
36651;SDS011;53334;51.976;20.144;2023-04-03T08:58:50;4.55;;;1.52;;
36651;SDS011;53334;51.976;20.144;2023-04-03T09:01:30;3.33;;;1.88;;
36651;SDS011;53334;51.976;20.144;2023-04-03T09:04:11;4.45;;;2.35;;
36651;SDS011;53334;51.976;20.144;2023-04-03T09:06:49;5.38;;;2.35;;
36651;SDS011;53334;51.976;20.144;2023-04-03T09:09:30;6.78;;;1.92;;
36651;SDS011;53334;51.976;20.144;2023-04-03T09:12:10;3.08;;;2.30;;
36651;SDS011;53334;51.976;20.144;2023-04-03T09:14:52;15.65;;;1.73;;
36651;SDS011;53334;51.976;20.144;2023-04-03T09:17:36;7.32;;;2.55;;
36651;SDS011;53334;51.976;20.144;2023-04-03T09:20:19;4.95;;;1.88;;
36651;SDS011;53334;51.976;20.144;2023-04-03T09:22:57;4.57;;;2.03;;
36651;SDS011;53334;51.976;20.144;2023-04-03T09:25:31;6.13;;;1.67;;
36651;SDS011;53334;51.976;20.144;2023-04-03T09:28:07;4.57;;;1.70;;
36651;SDS011;53334;51.976;20.144;2023-04-03T09:30:42;3.55;;;1.63;;
36651;SDS011;53334;51.976;20.144;2023-04-03T09:33:15;3.70;;;1.88;;
36651;SDS011;53334;51.976;20.144;2023-04-03T09:36:15;7.57;;;2.05;;
36651;SDS011;53334;51.976;20.144;2023-04-03T09:39:15;2.15;;;1.67;;
36651;SDS011;53334;51.976;20.144;2023-04-03T09:41:58;2.67;;;1.30;;
36651;SDS011;53334;51.976;20.144;2023-04-03T09:44:33;21.67;;;8.82;;
36651;SDS011;53334;51.976;20.144;2023-04-03T09:47:17;66.43;;;30.90;;
36651;SDS011;53334;51.976;20.144;2023-04-03T09:49:52;104.82;;;46.70;;
36651;SDS011;53334;51.976;20.144;2023-04-03T09:52:51;182.13;;;83.97;;
36651;SDS011;53334;51.976;20.144;2023-04-03T09:55:25;400.02;;;170.52;;
36651;SDS011;53334;51.976;20.144;2023-04-03T09:58:01;442.67;;;191.82;;
36651;SDS011;53334;51.976;20.144;2023-04-03T10:00:37;361.45;;;149.77;;
36651;SDS011;53334;51.976;20.144;2023-04-03T10:03:22;310.17;;;135.70;;
36651;SDS011;53334;51.976;20.144;2023-04-03T10:05:59;253.48;;;110.22;;
36651;SDS011;53334;51.976;20.144;2023-04-03T10:08:35;260.35;;;112.00;;
36651;SDS011;53334;51.976;20.144;2023-04-03T10:11:10;215.27;;;92.93;;
36651;SDS011;53334;51.976;20.144;2023-04-03T10:13:52;210.75;;;93.78;;
36651;SDS011;53334;51.976;20.144;2023-04-03T10:16:29;186.82;;;81.82;;
36651;SDS011;53334;51.976;20.144;2023-04-03T10:19:16;193.93;;;83.03;;
36651;SDS011;53334;51.976;20.144;2023-04-03T10:22:03;185.70;;;82.63;;
36651;SDS011;53334;51.976;20.144;2023-04-03T10:24:47;181.40;;;77.38;;
36651;SDS011;53334;51.976;20.144;2023-04-03T10:27:27;164.27;;;72.90;;
36651;SDS011;53334;51.976;20.144;2023-04-03T10:30:18;156.90;;;73.43;;
36651;SDS011;53334;51.976;20.144;2023-04-03T10:32:58;160.50;;;73.33;;
36651;SDS011;53334;51.976;20.144;2023-04-03T10:35:41;145.00;;;66.57;;
36651;SDS011;53334;51.976;20.144;2023-04-03T10:38:24;140.20;;;60.70;;
36651;SDS011;53334;51.976;20.144;2023-04-03T10:41:12;125.88;;;60.55;;
36651;SDS011;53334;51.976;20.144;2023-04-03T10:43:56;119.25;;;59.58;;
36651;SDS011;53334;51.976;20.144;2023-04-03T10:46:38;119.38;;;54.70;;
36651;SDS011;53334;51.976;20.144;2023-04-03T10:49:25;136.13;;;57.03;;
36651;SDS011;53334;51.976;20.144;2023-04-03T10:52:09;121.18;;;53.35;;
36651;SDS011;53334;51.976;20.144;2023-04-03T10:54:49;117.03;;;50.95;;
36651;SDS011;53334;51.976;20.144;2023-04-03T10:57:33;104.85;;;48.03;;
36651;SDS011;53334;51.976;20.144;2023-04-03T11:00:42;107.47;;;46.60;;
36651;SDS011;53334;51.976;20.144;2023-04-03T11:03:24;99.55;;;45.60;;
36651;SDS011;53334;51.976;20.144;2023-04-03T11:06:05;89.35;;;42.70;;
36651;SDS011;53334;51.976;20.144;2023-04-03T11:09:12;91.03;;;38.97;;
36651;SDS011;53334;51.976;20.144;2023-04-03T11:11:54;80.47;;;39.13;;
36651;SDS011;53334;51.976;20.144;2023-04-03T11:14:35;77.07;;;35.70;;
36651;SDS011;53334;51.976;20.144;2023-04-03T11:17:14;68.90;;;35.05;;
36651;SDS011;53334;51.976;20.144;2023-04-03T11:19:57;72.57;;;34.08;;
36651;SDS011;53334;51.976;20.144;2023-04-03T11:22:35;64.65;;;30.35;;
36651;SDS011;53334;51.976;20.144;2023-04-03T11:25:14;56.08;;;28.15;;
36651;SDS011;53334;51.976;20.144;2023-04-03T11:27:54;61.05;;;29.70;;
36651;SDS011;53334;51.976;20.144;2023-04-03T11:30:32;51.08;;;25.48;;
36651;SDS011;53334;51.976;20.144;2023-04-03T11:33:19;50.47;;;26.98;;
36651;SDS011;53334;51.976;20.144;2023-04-03T11:36:02;49.65;;;26.30;;
36651;SDS011;53334;51.976;20.144;2023-04-03T11:38:56;45.35;;;24.13;;
36651;SDS011;53334;51.976;20.144;2023-04-03T11:41:32;44.30;;;22.48;;
36651;SDS011;53334;51.976;20.144;2023-04-03T11:44:27;45.90;;;22.38;;
36651;SDS011;53334;51.976;20.144;2023-04-03T11:47:06;42.65;;;20.63;;
36651;SDS011;53334;51.976;20.144;2023-04-03T11:49:51;39.85;;;21.15;;
36651;SDS011;53334;51.976;20.144;2023-04-03T11:55:44;42.47;;;20.02;;
36651;SDS011;53334;51.976;20.144;2023-04-03T11:58:30;37.28;;;18.85;;
36651;SDS011;53334;51.976;20.144;2023-04-03T12:01:06;36.83;;;18.48;;
36651;SDS011;53334;51.976;20.144;2023-04-03T12:09:56;28.30;;;14.90;;
36651;SDS011;53334;51.976;20.144;2023-04-03T12:12:36;29.58;;;14.45;;
36651;SDS011;53334;51.976;20.144;2023-04-03T12:15:19;26.95;;;13.82;;
36651;SDS011;53334;51.976;20.144;2023-04-03T12:17:58;26.83;;;13.98;;
36651;SDS011;53334;51.976;20.144;2023-04-03T12:23:29;24.00;;;12.35;;
36651;SDS011;53334;51.976;20.144;2023-04-03T12:26:18;25.05;;;11.80;;
36651;SDS011;53334;51.976;20.144;2023-04-03T12:28:54;27.23;;;11.98;;
36651;SDS011;53334;51.976;20.144;2023-04-03T12:34:12;22.70;;;10.65;;
36651;SDS011;53334;51.976;20.144;2023-04-03T12:36:59;16.13;;;9.45;;
36651;SDS011;53334;51.976;20.144;2023-04-03T12:39:41;19.85;;;10.38;;
36651;SDS011;53334;51.976;20.144;2023-04-03T12:45:43;18.92;;;10.38;;
36651;SDS011;53334;51.976;20.144;2023-04-03T12:48:22;20.73;;;10.05;;
36651;SDS011;53334;51.976;20.144;2023-04-03T12:50:58;16.95;;;7.97;;
36651;SDS011;53334;51.976;20.144;2023-04-03T12:53:33;19.67;;;8.30;;
36651;SDS011;53334;51.976;20.144;2023-04-03T12:56:20;16.58;;;8.07;;
36651;SDS011;53334;51.976;20.144;2023-04-03T12:59:12;16.98;;;6.68;;
36651;SDS011;53334;51.976;20.144;2023-04-03T13:01:53;12.00;;;7.13;;
36651;SDS011;53334;51.976;20.144;2023-04-03T13:04:28;12.73;;;5.95;;
36651;SDS011;53334;51.976;20.144;2023-04-03T13:07:03;14.98;;;6.63;;
36651;SDS011;53334;51.976;20.144;2023-04-03T13:09:36;14.73;;;6.75;;
36651;SDS011;53334;51.976;20.144;2023-04-03T13:12:10;9.82;;;5.45;;
36651;SDS011;53334;51.976;20.144;2023-04-03T13:14:52;10.77;;;5.43;;
36651;SDS011;53334;51.976;20.144;2023-04-03T13:17:27;10.50;;;6.10;;
36651;SDS011;53334;51.976;20.144;2023-04-03T13:20:14;9.55;;;5.70;;
36651;SDS011;53334;51.976;20.144;2023-04-03T13:22:52;10.65;;;5.30;;
36651;SDS011;53334;51.976;20.144;2023-04-03T13:25:32;11.63;;;4.93;;
36651;SDS011;53334;51.976;20.144;2023-04-03T13:28:09;10.90;;;4.65;;
36651;SDS011;53334;51.976;20.144;2023-04-03T13:30:55;11.13;;;4.95;;
36651;SDS011;53334;51.976;20.144;2023-04-03T13:33:35;17.42;;;5.82;;
36651;SDS011;53334;51.976;20.144;2023-04-03T13:36:15;7.72;;;4.30;;
36651;SDS011;53334;51.976;20.144;2023-04-03T13:38:57;18.15;;;4.80;;
36651;SDS011;53334;51.976;20.144;2023-04-03T13:41:32;18.73;;;4.88;;
36651;SDS011;53334;51.976;20.144;2023-04-03T13:44:17;21.77;;;5.00;;
36651;SDS011;53334;51.976;20.144;2023-04-03T13:47:00;15.82;;;4.82;;
36651;SDS011;53334;51.976;20.144;2023-04-03T13:49:59;17.02;;;5.22;;
36651;SDS011;53334;51.976;20.144;2023-04-03T13:52:38;28.23;;;4.28;;
36651;SDS011;53334;51.976;20.144;2023-04-03T13:55:19;11.10;;;3.70;;
36651;SDS011;53334;51.976;20.144;2023-04-03T13:57:57;10.10;;;4.00;;
36651;SDS011;53334;51.976;20.144;2023-04-03T14:00:35;18.58;;;3.97;;
36651;SDS011;53334;51.976;20.144;2023-04-03T14:03:16;12.43;;;3.75;;
36651;SDS011;53334;51.976;20.144;2023-04-03T14:06:01;10.30;;;4.00;;
36651;SDS011;53334;51.976;20.144;2023-04-03T14:08:49;13.43;;;4.03;;
36651;SDS011;53334;51.976;20.144;2023-04-03T14:11:26;7.60;;;3.42;;
36651;SDS011;53334;51.976;20.144;2023-04-03T14:14:21;14.02;;;4.05;;
36651;SDS011;53334;51.976;20.144;2023-04-03T14:17:14;13.13;;;4.05;;
36651;SDS011;53334;51.976;20.144;2023-04-03T14:19:57;10.70;;;3.37;;
36651;SDS011;53334;51.976;20.144;2023-04-03T14:22:32;7.05;;;3.00;;
36651;SDS011;53334;51.976;20.144;2023-04-03T14:25:07;9.18;;;3.72;;
36651;SDS011;53334;51.976;20.144;2023-04-03T14:27:44;8.65;;;2.67;;
36651;SDS011;53334;51.976;20.144;2023-04-03T14:30:21;7.72;;;2.92;;
36651;SDS011;53334;51.976;20.144;2023-04-03T14:32:56;7.72;;;2.92;;
36651;SDS011;53334;51.976;20.144;2023-04-03T14:35:32;7.85;;;2.72;;
36651;SDS011;53334;51.976;20.144;2023-04-03T14:38:11;6.45;;;2.58;;
36651;SDS011;53334;51.976;20.144;2023-04-03T14:40:54;7.57;;;3.17;;
36651;SDS011;53334;51.976;20.144;2023-04-03T14:43:44;4.28;;;1.98;;
36651;SDS011;53334;51.976;20.144;2023-04-03T14:46:24;6.38;;;2.30;;
36651;SDS011;53334;51.976;20.144;2023-04-03T14:49:22;8.00;;;2.65;;
36651;SDS011;53334;51.976;20.144;2023-04-03T14:51:59;4.82;;;2.25;;
36651;SDS011;53334;51.976;20.144;2023-04-03T14:54:32;10.75;;;2.92;;
36651;SDS011;53334;51.976;20.144;2023-04-03T14:57:08;5.07;;;2.40;;
36651;SDS011;53334;51.976;20.144;2023-04-03T14:59:44;5.90;;;2.40;;
36651;SDS011;53334;51.976;20.144;2023-04-03T15:02:25;5.03;;;2.05;;
36651;SDS011;53334;51.976;20.144;2023-04-03T15:05:02;8.98;;;2.00;;
36651;SDS011;53334;51.976;20.144;2023-04-03T15:07:39;2.42;;;1.40;;
36651;SDS011;53334;51.976;20.144;2023-04-03T15:10:15;3.00;;;1.80;;
36651;SDS011;53334;51.976;20.144;2023-04-03T15:12:51;3.08;;;1.90;;
36651;SDS011;53334;51.976;20.144;2023-04-03T15:15:27;3.45;;;1.85;;
36651;SDS011;53334;51.976;20.144;2023-04-03T15:18:01;3.25;;;2.00;;
36651;SDS011;53334;51.976;20.144;2023-04-03T15:20:36;4.65;;;1.70;;
36651;SDS011;53334;51.976;20.144;2023-04-03T15:23:12;2.05;;;1.52;;
36651;SDS011;53334;51.976;20.144;2023-04-03T15:25:47;2.70;;;1.65;;
36651;SDS011;53334;51.976;20.144;2023-04-03T15:28:23;2.05;;;1.48;;
36651;SDS011;53334;51.976;20.144;2023-04-03T15:31:01;2.13;;;1.25;;
36651;SDS011;53334;51.976;20.144;2023-04-03T15:33:35;1.75;;;1.48;;
36651;SDS011;53334;51.976;20.144;2023-04-03T15:36:09;1.48;;;1.38;;
36651;SDS011;53334;51.976;20.144;2023-04-03T15:38:49;1.73;;;1.52;;
36651;SDS011;53334;51.976;20.144;2023-04-03T15:41:22;2.65;;;1.67;;
36651;SDS011;53334;51.976;20.144;2023-04-03T15:43:57;2.25;;;1.55;;
36651;SDS011;53334;51.976;20.144;2023-04-03T15:46:31;1.48;;;1.20;;
36651;SDS011;53334;51.976;20.144;2023-04-03T15:49:05;1.98;;;1.60;;
36651;SDS011;53334;51.976;20.144;2023-04-03T15:51:39;3.15;;;1.40;;
36651;SDS011;53334;51.976;20.144;2023-04-03T15:54:14;2.00;;;1.35;;
36651;SDS011;53334;51.976;20.144;2023-04-03T15:56:48;3.85;;;1.55;;
36651;SDS011;53334;51.976;20.144;2023-04-03T15:59:22;2.38;;;1.40;;
36651;SDS011;53334;51.976;20.144;2023-04-03T16:01:55;2.75;;;1.30;;
36651;SDS011;53334;51.976;20.144;2023-04-03T16:04:29;5.40;;;1.40;;
36651;SDS011;53334;51.976;20.144;2023-04-03T16:07:03;2.33;;;1.20;;
36651;SDS011;53334;51.976;20.144;2023-04-03T16:09:38;7.47;;;1.33;;
36651;SDS011;53334;51.976;20.144;2023-04-03T16:12:11;2.13;;;1.45;;
36651;SDS011;53334;51.976;20.144;2023-04-03T16:14:45;4.55;;;1.45;;
36651;SDS011;53334;51.976;20.144;2023-04-03T16:17:18;6.60;;;1.42;;